createdAt,value
2022-10-19T00:02:11.578Z,4.53
2022-10-19T00:07:27.022Z,2.58
2022-10-19T00:12:41.974Z,10.38
2022-10-19T00:17:57.200Z,4.47
2022-10-19T00:23:12.172Z,6.95
2022-10-19T00:28:27.615Z,4.10
2022-10-19T00:33:43.161Z,5.15
2022-10-19T00:38:58.182Z,3.53
2022-10-19T00:44:13.186Z,3.08
2022-10-19T00:49:28.604Z,4.32
2022-10-19T00:54:44.225Z,3.05
2022-10-19T01:00:05.322Z,7.07
2022-10-19T01:06:07.490Z,2.70
2022-10-19T01:11:23.651Z,4.18
2022-10-19T01:16:39.240Z,4.70
2022-10-19T01:21:54.231Z,3.05
2022-10-19T01:27:09.511Z,3.80
2022-10-19T01:32:25.307Z,2.95
2022-10-19T01:37:40.181Z,3.45
2022-10-19T01:48:09.998Z,3.38
2022-10-19T01:53:25.517Z,3.63
2022-10-19T01:58:41.230Z,2.03
2022-10-19T02:03:57.212Z,3.15
2022-10-19T02:09:12.217Z,8.82
2022-10-19T02:14:27.191Z,4.57
2022-10-19T02:19:42.203Z,2.33
2022-10-19T02:24:57.587Z,5.38
2022-10-19T02:30:13.221Z,6.57
2022-10-19T02:35:28.512Z,10.20
2022-10-19T02:40:44.505Z,5.72
2022-10-19T02:46:00.525Z,4.50
2022-10-19T02:51:16.217Z,2.70
2022-10-19T02:56:31.385Z,4.20
2022-10-19T03:01:46.405Z,2.38
2022-10-19T03:07:02.195Z,3.70
2022-10-19T03:12:17.200Z,4.53
2022-10-19T03:17:32.463Z,3.65
2022-10-19T03:22:48.583Z,5.10
2022-10-19T03:28:04.529Z,3.83
2022-10-19T03:33:20.574Z,6.20
2022-10-19T03:38:36.199Z,8.00
2022-10-19T03:43:51.262Z,11.73
2022-10-19T03:49:06.507Z,7.88
2022-10-19T03:54:25.016Z,8.77
2022-10-19T03:59:42.225Z,4.75
2022-10-19T04:04:57.315Z,6.60
2022-10-19T04:10:12.234Z,5.32
2022-10-19T04:15:27.274Z,4.20
2022-10-19T04:20:42.186Z,3.85
2022-10-19T04:25:57.257Z,2.17
2022-10-19T04:31:12.276Z,4.32
2022-10-19T04:36:27.228Z,1.67
2022-10-19T04:41:42.504Z,4.65
2022-10-19T04:46:58.207Z,2.72
2022-10-19T04:52:13.226Z,2.58
2022-10-19T04:57:28.213Z,4.38
2022-10-19T05:02:43.286Z,1.50
2022-10-19T05:07:58.529Z,2.58
2022-10-19T05:13:14.185Z,2.35
2022-10-19T05:18:29.204Z,4.97
2022-10-19T05:23:44.203Z,5.38
2022-10-19T05:28:59.297Z,4.75
2022-10-19T05:34:14.195Z,4.18
2022-10-19T05:39:29.248Z,5.05
2022-10-19T05:44:44.255Z,3.40
2022-10-19T05:49:59.188Z,4.18
2022-10-19T05:55:14.627Z,3.28
2022-10-19T06:00:30.202Z,3.08
2022-10-19T06:05:45.252Z,4.97
2022-10-19T06:11:00.539Z,3.42
2022-10-19T06:16:16.203Z,2.83
2022-10-19T06:21:31.241Z,8.07
2022-10-19T06:26:46.375Z,4.80
2022-10-19T06:32:02.263Z,5.05
2022-10-19T06:37:17.514Z,3.88
2022-10-19T06:42:33.233Z,4.20
2022-10-19T06:47:48.958Z,6.93
2022-10-19T06:53:04.286Z,5.40
2022-10-19T06:58:19.230Z,6.78
2022-10-19T07:03:34.236Z,4.85
2022-10-19T07:08:49.543Z,2.42
2022-10-19T07:14:05.292Z,4.68
2022-10-19T07:19:20.255Z,4.50
2022-10-19T07:24:35.252Z,5.03
2022-10-19T07:29:50.267Z,3.13
2022-10-19T07:35:05.230Z,2.90
2022-10-19T07:40:20.560Z,3.80
2022-10-19T07:45:36.091Z,3.15
2022-10-19T07:50:51.261Z,2.95
2022-10-19T07:56:06.214Z,3.03
2022-10-19T08:01:21.263Z,5.60
2022-10-19T08:06:36.003Z,3.63
2022-10-19T08:11:51.229Z,4.97
2022-10-19T08:17:06.267Z,5.05
2022-10-19T08:22:21.256Z,3.53
2022-10-19T08:32:51.224Z,4.15
2022-10-19T08:38:06.298Z,3.15
2022-10-19T08:43:21.236Z,7.53
2022-10-19T08:48:36.244Z,4.35
2022-10-19T08:53:51.563Z,5.32
2022-10-19T08:59:07.217Z,5.35
2022-10-19T09:04:21.989Z,7.57
2022-10-19T09:09:37.322Z,5.60
2022-10-19T09:14:52.215Z,5.97
2022-10-19T09:20:07.212Z,2.30
2022-10-19T09:25:22.282Z,6.10
2022-10-19T09:30:37.237Z,6.43
2022-10-19T09:35:52.283Z,3.17
2022-10-19T09:41:07.233Z,3.10
2022-10-19T09:46:22.263Z,8.57
2022-10-19T09:51:37.535Z,2.63
2022-10-19T09:56:53.253Z,2.58
2022-10-19T10:02:08.242Z,4.28
2022-10-19T10:07:23.528Z,2.97
2022-10-19T10:12:39.564Z,2.58
2022-10-19T10:17:55.238Z,3.85
2022-10-19T10:23:10.326Z,2.95
2022-10-19T10:28:25.235Z,3.58
2022-10-19T10:33:44.662Z,5.10
2022-10-19T10:39:00.255Z,2.28
2022-10-19T10:44:15.253Z,5.70
2022-10-19T10:49:30.001Z,2.63
2022-10-19T10:54:45.253Z,2.45
2022-10-19T11:00:00.269Z,3.65
2022-10-19T11:05:15.255Z,3.30
2022-10-19T11:10:30.231Z,3.60
2022-10-19T11:15:45.579Z,4.55
2022-10-19T11:21:01.279Z,2.42
2022-10-19T11:26:26.316Z,4.63
2022-10-19T11:31:42.279Z,4.55
2022-10-19T11:36:57.259Z,6.20
2022-10-19T11:42:12.240Z,2.58
2022-10-19T11:47:27.262Z,3.72
2022-10-19T11:52:42.233Z,4.68
2022-10-19T11:57:57.311Z,5.75
2022-10-19T12:03:12.243Z,4.60
2022-10-19T12:08:27.312Z,3.25
2022-10-19T12:13:42.595Z,2.33
2022-10-19T12:18:58.663Z,2.95
2022-10-19T12:24:14.258Z,3.13
2022-10-19T12:29:29.242Z,2.90
2022-10-19T12:34:44.315Z,4.65
2022-10-19T12:39:59.590Z,2.78
2022-10-19T12:45:15.263Z,2.67
2022-10-19T12:50:30.893Z,2.50
2022-10-19T12:55:47.244Z,5.78
2022-10-19T13:01:02.346Z,17.85
2022-10-19T13:06:17.242Z,16.50
2022-10-19T13:11:32.600Z,19.88
2022-10-19T13:16:48.251Z,20.55
2022-10-19T13:22:03.236Z,31.15
2022-10-19T13:27:18.340Z,34.30
2022-10-19T13:32:33.681Z,24.80
2022-10-19T13:37:49.310Z,25.42
2022-10-19T13:43:04.297Z,22.35
2022-10-19T13:48:18.960Z,32.78
2022-10-19T13:53:34.883Z,29.60
2022-10-19T13:58:50.239Z,18.48
2022-10-19T14:04:05.662Z,25.48
2022-10-19T14:09:21.029Z,34.75
2022-10-19T14:14:36.278Z,33.05
2022-10-19T14:19:51.265Z,29.83
2022-10-19T14:25:06.366Z,31.25
2022-10-19T14:30:21.239Z,27.13
2022-10-19T14:35:36.224Z,29.88
2022-10-19T14:40:51.284Z,29.65
2022-10-19T14:46:06.290Z,27.15
2022-10-19T14:51:21.248Z,23.77
2022-10-19T14:56:36.363Z,26.77
2022-10-19T15:01:51.685Z,24.92
2022-10-19T15:07:07.309Z,19.70
2022-10-19T15:12:22.287Z,19.00
2022-10-19T15:17:37.282Z,19.15
2022-10-19T15:22:52.365Z,13.15
2022-10-19T15:28:07.309Z,15.82
2022-10-19T15:33:22.287Z,13.95
2022-10-19T15:38:37.245Z,10.48
2022-10-19T15:43:52.718Z,12.48
2022-10-19T15:49:08.257Z,13.45
2022-10-19T15:54:23.294Z,19.73
2022-10-19T15:59:38.591Z,37.95
2022-10-19T16:04:54.694Z,89.75
2022-10-19T16:10:10.588Z,68.97
2022-10-19T16:15:26.655Z,88.60
2022-10-19T16:20:41.601Z,70.78
2022-10-19T16:25:57.320Z,57.05
2022-10-19T16:31:12.577Z,63.33
2022-10-19T16:36:28.580Z,50.42
2022-10-19T16:41:44.588Z,35.20
2022-10-19T16:47:00.321Z,31.10
2022-10-19T16:52:15.555Z,30.80
2022-10-19T16:57:31.251Z,28.75
2022-10-19T17:02:46.672Z,23.02
2022-10-19T17:08:02.572Z,26.35
2022-10-19T17:13:18.142Z,19.58
2022-10-19T17:18:33.316Z,17.20
2022-10-19T17:23:48.360Z,18.25
2022-10-19T17:29:03.264Z,15.82
2022-10-19T17:34:18.260Z,13.15
2022-10-19T17:39:33.610Z,12.65
2022-10-19T17:44:52.292Z,10.10
2022-10-19T17:50:07.363Z,13.48
2022-10-19T18:00:37.782Z,8.30
2022-10-19T18:05:53.301Z,5.32
2022-10-19T18:11:08.589Z,8.30
2022-10-19T18:16:24.296Z,7.78
2022-10-19T18:21:39.308Z,12.50
2022-10-19T18:26:54.318Z,8.77
2022-10-19T18:32:09.747Z,4.90
2022-10-19T18:37:26.626Z,12.75
2022-10-19T18:42:42.881Z,4.88
2022-10-19T18:47:58.355Z,6.53
2022-10-19T18:53:13.531Z,5.32
2022-10-19T18:58:29.687Z,4.07
2022-10-19T19:03:45.301Z,5.25
2022-10-19T19:09:00.301Z,5.07
2022-10-19T19:14:15.305Z,10.00
2022-10-19T19:19:30.628Z,7.82
2022-10-19T19:24:46.341Z,3.30
2022-10-19T19:30:01.298Z,3.70
2022-10-19T19:35:16.431Z,4.35
2022-10-19T19:40:31.284Z,4.00
2022-10-19T19:45:46.606Z,8.55
2022-10-19T19:51:03.583Z,8.25
2022-10-19T19:56:20.581Z,6.18
2022-10-19T20:01:36.099Z,6.05
2022-10-19T20:06:51.363Z,6.97
2022-10-19T20:12:06.639Z,5.30
2022-10-19T20:17:22.357Z,3.75
2022-10-19T20:22:37.317Z,3.50
2022-10-19T20:27:52.363Z,7.85
2022-10-19T20:33:07.297Z,2.85
2022-10-19T20:38:22.264Z,4.90
2022-10-19T20:43:37.308Z,3.22
2022-10-19T20:48:52.591Z,2.78
2022-10-19T20:54:08.611Z,3.67
2022-10-19T20:59:24.053Z,3.05
2022-10-19T21:04:39.266Z,3.65
2022-10-19T21:09:54.377Z,2.15
2022-10-19T21:15:09.270Z,3.25
2022-10-19T21:20:24.608Z,3.67
2022-10-19T21:25:40.312Z,3.17
2022-10-19T21:30:55.596Z,4.70
2022-10-19T21:36:11.508Z,2.50
2022-10-19T21:41:27.297Z,3.67
2022-10-19T21:46:42.287Z,3.75
2022-10-19T21:51:57.554Z,2.50
2022-10-19T21:57:14.118Z,3.85
2022-10-19T22:02:29.279Z,3.17
2022-10-19T22:07:44.279Z,3.67
2022-10-19T22:12:59.694Z,2.75
2022-10-19T22:18:15.291Z,5.95
2022-10-19T22:23:30.286Z,5.82
2022-10-19T22:28:45.265Z,3.55
2022-10-19T22:34:00.255Z,3.38
2022-10-19T22:39:15.318Z,3.88
2022-10-19T22:44:30.291Z,3.92
2022-10-19T22:49:45.638Z,4.15
2022-10-19T22:55:01.280Z,2.83
2022-10-19T23:00:16.311Z,3.92
2022-10-19T23:05:31.585Z,2.30
2022-10-19T23:10:47.052Z,2.78
2022-10-19T23:16:02.144Z,5.35
2022-10-19T23:21:17.294Z,2.13
2022-10-19T23:26:32.270Z,2.17
2022-10-19T23:31:47.617Z,3.55
2022-10-19T23:37:03.342Z,4.13
2022-10-19T23:42:18.063Z,2.88
2022-10-19T23:47:33.505Z,3.67
2022-10-19T23:52:49.617Z,2.78
2022-10-19T23:58:05.325Z,1.45
